Date,TemperatureHighF,TemperatureAvgF,TemperatureLowF,DewpointHighF,DewpointAvgF,DewpointLowF,HumidityHigh,HumidityAvg,HumidityLow,PressureMaxIn,PressureMinIn,WindSpeedMaxMPH,WindSpeedAvgMPH,GustSpeedMaxMPH,PrecipitationSumIn
2013-3-1,46,29,13,-100,-100,-100,0,0,100,0.00,40.00,0,-999,0,0.00
2013-3-2,58,34,18,-100,-100,-100,0,0,100,0.00,40.00,0,-999,0,0.00
2013-3-3,60,39,19,-100,-100,-100,0,0,100,0.00,40.00,0,-999,0,0.00
2013-3-4,49,40,31,-100,-100,-100,0,0,100,0.00,40.00,0,-999,0,0.00
2013-3-5,55,33,14,-100,-100,-100,0,0,100,0.00,40.00,0,-999,0,0.00
2013-3-6,58,37,22,-100,-100,-100,0,0,100,0.00,40.00,0,-999,0,0.00
2013-3-7,62,40,19,-100,-100,-100,0,0,100,0.00,40.00,0,-999,0,0.00
2013-3-8,55,39,30,-100,-100,-100,0,0,100,0.00,40.00,0,-999,0,0.00
2013-3-9,30,24,19,-100,-100,-100,0,0,100,0.00,40.00,0,-999,0,0.00
2013-3-10,35,23,14,-100,-100,-100,0,0,100,0.00,40.00,0,-999,0,0.00
2013-3-11,48,27,10,-100,-100,-100,0,0,100,0.00,40.00,0,-999,0,0.00
2013-3-12,54,36,20,-100,-100,-100,0,0,100,0.00,40.00,0,-999,0,0.00
2013-3-13,61,40,21,-100,-100,-100,0,0,100,0.00,40.00,0,-999,0,0.00
2013-3-14,67,44,29,-100,-100,-100,0,0,100,0.00,40.00,0,-999,0,0.00
2013-3-15,69,46,29,-100,-100,-100,0,0,100,0.00,40.00,0,-999,0,0.00
2013-3-16,59,44,32,-100,-100,-100,0,0,100,0.00,40.00,0,-999,0,0.00
2013-3-17,58,40,27,-100,-100,-100,0,0,100,0.00,40.00,0,-999,0,0.00
2013-3-18,54,36,19,-100,-100,-100,0,0,100,0.00,40.00,0,-999,0,0.00
2013-3-19,52,36,22,-100,-100,-100,0,0,100,0.00,40.00,0,-999,0,0.00
2013-3-20,58,37,21,-100,-100,-100,0,0,100,0.00,40.00,0,-999,0,0.00
2013-3-21,60,43,28,-100,-100,-100,0,0,100,0.00,40.00,0,-999,0,0.00
2013-3-22,53,34,17,-100,-100,-100,0,0,100,0.00,40.00,0,-999,0,0.00
2013-3-23,33,23,9,-100,-100,-100,0,0,100,0.00,40.00,0,-999,0,0.00
2013-3-24,40,20,3,-100,-100,-100,0,0,100,0.00,40.00,0,-999,0,0.00
2013-3-25,45,25,9,-100,-100,-100,0,0,100,0.00,40.00,0,-999,0,0.00
2013-3-26,58,39,20,-100,-100,-100,0,0,100,0.00,40.00,0,-999,0,0.00
2013-3-27,65,44,25,-100,-100,-100,0,0,100,0.00,40.00,0,-999,0,0.00
2013-3-28,63,47,29,-100,-100,-100,0,0,100,0.00,40.00,0,-999,0,0.00
2013-3-29,63,46,33,-100,-100,-100,0,0,100,0.00,40.00,0,-999,0,0.00
2013-3-30,67,47,31,-100,-100,-100,0,0,100,0.00,40.00,0,-999,0,0.00
2013-3-31,66,49,36,-100,-100,-100,0,0,100,0.00,40.00,0,-999,0,0.00